Time;durP1;ratioP1;P1;durP2;ratioP2;P2;SDS_P1;SDS_P2;PMS_P1;PMS_P2;Temp;Humidity;BMP_temperature;BMP_pressure;BME280_temperature;BME280_humidity;BME280_pressure;Samples;Min_cycle;Max_cycle;Signal;HPM_P1;HPM_P2
2021/06/28 00:02:13;;;;;;;6.97;6.38;;;;;;;18.12;82.62;98603.28;5110352;28;20038;-64
2021/06/28 00:04:38;;;;;;;6.55;6.05;;;;;;;18.04;83.00;98593.25;5109949;28;20376;-63
2021/06/28 00:07:04;;;;;;;9.90;8.20;;;;;;;18.01;82.63;98593.41;5109656;28;20050;-63
2021/06/28 00:09:29;;;;;;;6.40;5.68;;;;;;;17.98;82.91;98590.97;5108540;28;20043;-63
2021/06/28 00:11:55;;;;;;;6.68;6.07;;;;;;;17.92;83.81;98574.84;5107519;28;20031;-63
2021/06/28 00:14:21;;;;;;;6.53;5.93;;;;;;;17.90;84.60;98572.34;5108990;28;20173;-63
2021/06/28 00:16:46;;;;;;;6.35;5.85;;;;;;;17.89;84.86;98578.44;5106908;28;20020;-63
2021/06/28 00:19:12;;;;;;;6.70;5.72;;;;;;;17.90;84.67;98576.69;5109055;28;20027;-63
2021/06/28 00:21:39;;;;;;;6.88;6.20;;;;;;;17.89;83.89;98570.66;5108084;28;20023;-62
2021/06/28 00:24:06;;;;;;;7.20;6.47;;;;;;;17.99;83.08;98581.44;5104691;28;20024;-63
2021/06/28 00:26:32;;;;;;;6.57;6.07;;;;;;;17.92;83.27;98573.09;5108805;28;20368;-63
2021/06/28 00:28:57;;;;;;;6.70;6.10;;;;;;;17.85;83.73;98576.94;5105624;28;20028;-63
2021/06/28 00:31:23;;;;;;;7.60;6.70;;;;;;;17.84;84.56;98564.88;5108506;28;20107;-63
2021/06/28 00:33:48;;;;;;;6.22;5.72;;;;;;;17.82;85.02;98571.06;5110103;28;20059;-63
2021/06/28 00:36:14;;;;;;;6.00;5.57;;;;;;;17.78;85.83;98567.75;5111266;28;20112;-63
2021/06/28 00:38:39;;;;;;;6.60;5.97;;;;;;;17.77;85.73;98566.09;5109396;28;20023;-63
2021/06/28 00:41:05;;;;;;;7.55;6.80;;;;;;;17.80;84.85;98561.59;5110856;28;20333;-64
2021/06/28 00:43:30;;;;;;;7.43;5.65;;;;;;;17.83;84.70;98559.75;5108600;28;20043;-64
2021/06/28 00:45:55;;;;;;;6.50;6.00;;;;;;;17.83;85.24;98558.00;5092090;28;20142;-64
2021/06/28 00:48:21;;;;;;;7.15;6.43;;;;;;;17.79;84.64;98559.91;5107131;28;20031;-63
2021/06/28 00:50:50;;;;;;;7.45;6.75;;;;;;;17.84;84.28;98564.03;5109532;28;20392;-63
2021/06/28 00:53:18;;;;;;;7.72;6.00;;;;;;;17.80;84.28;98559.00;5110748;28;20043;-63
2021/06/28 00:55:44;;;;;;;6.97;5.50;;;;;;;17.77;84.31;98560.91;5108298;28;20038;-63
2021/06/28 00:58:10;;;;;;;6.53;6.03;;;;;;;17.78;83.60;98560.81;5107340;28;20019;-63
2021/06/28 01:00:36;;;;;;;5.93;5.43;;;;;;;17.87;82.46;98564.69;5106433;28;20032;-63
2021/06/28 01:03:02;;;;;;;7.05;4.97;;;;;;;17.91;82.19;98576.59;5110304;28;20027;-63
2021/06/28 01:05:32;;;;;;;5.97;5.50;;;;;;;17.94;81.80;98580.81;5107249;28;20039;-63
2021/06/28 01:07:59;;;;;;;6.10;5.57;;;;;;;17.95;81.69;98575.53;5108443;28;20058;-63
2021/06/28 01:10:25;;;;;;;6.70;5.85;;;;;;;17.85;82.04;98576.94;5109846;28;20376;-63
2021/06/28 01:12:53;;;;;;;5.47;5.18;;;;;;;17.83;82.15;98573.56;5109114;28;20441;-63
2021/06/28 01:15:20;;;;;;;6.53;5.90;;;;;;;17.74;82.29;98568.81;5087127;28;20039;-63
2021/06/28 01:17:47;;;;;;;6.25;5.75;;;;;;;17.69;82.16;98576.00;5110955;28;20028;-63
2021/06/28 01:20:32;;;;;;;5.45;5.05;;;;;;;17.68;82.15;98571.72;5111572;28;20063;-63
2021/06/28 01:23:23;;;;;;;5.97;5.57;;;;;;;17.60;82.43;98581.63;5112586;28;20028;-63
2021/06/28 01:25:55;;;;;;;6.18;5.68;;;;;;;17.50;82.73;98581.19;5112728;28;20065;-63
2021/06/28 01:28:20;;;;;;;6.25;5.82;;;;;;;17.40;83.28;98587.72;5111940;28;20024;-63
2021/06/28 01:30:47;;;;;;;6.78;5.72;;;;;;;17.33;83.56;98578.56;5111084;28;20039;-63
2021/06/28 01:33:13;;;;;;;7.22;6.63;;;;;;;17.28;84.05;98578.75;5111910;28;20686;-63
2021/06/28 01:35:40;;;;;;;7.55;6.88;;;;;;;17.23;84.52;98572.94;5111241;28;20031;-63
2021/06/28 01:38:06;;;;;;;6.10;5.60;;;;;;;17.17;84.92;98565.47;5113020;28;20023;-63
2021/06/28 01:40:31;;;;;;;6.88;6.30;;;;;;;17.19;85.13;98570.56;5112577;28;20027;-63
2021/06/28 01:42:57;;;;;;;5.85;5.28;;;;;;;17.21;85.14;98569.59;5111254;28;20066;-63
2021/06/28 01:45:24;;;;;;;6.03;5.40;;;;;;;17.22;84.99;98570.44;5112514;28;20045;-63
2021/06/28 01:47:50;;;;;;;6.70;6.15;;;;;;;17.28;84.44;98572.75;5113647;28;20295;-63
2021/06/28 01:50:18;;;;;;;6.45;5.97;;;;;;;17.31;84.33;98581.19;5110282;28;20031;-63
2021/06/28 01:52:43;;;;;;;5.88;5.45;;;;;;;17.29;83.84;98587.38;5111848;28;20422;-63
2021/06/28 01:55:12;;;;;;;6.55;5.95;;;;;;;17.33;83.90;98579.41;5092743;28;20036;-63
2021/06/28 01:57:53;;;;;;;6.13;5.63;;;;;;;17.36;83.76;98574.06;5111936;28;20095;-63
2021/06/28 02:00:29;;;;;;;10.05;6.25;;;;;;;17.26;84.03;98578.00;5112664;28;20077;-63
2021/06/28 02:03:06;;;;;;;6.65;6.15;;;;;;;17.25;84.14;98578.06;5110461;28;20027;-63
2021/06/28 02:05:35;;;;;;;6.20;5.70;;;;;;;17.27;84.17;98577.06;5109926;28;20072;-63
2021/06/28 02:08:03;;;;;;;5.30;4.82;;;;;;;17.21;84.01;98574.78;5109636;28;20043;-63
2021/06/28 02:10:29;;;;;;;5.95;5.55;;;;;;;17.17;84.64;98572.41;5111458;28;20042;-63
2021/06/28 02:12:54;;;;;;;7.53;6.43;;;;;;;17.23;84.20;98574.69;5111696;28;20031;-63
2021/06/28 02:15:26;;;;;;;6.15;5.45;;;;;;;17.31;83.95;98581.19;5110879;28;20033;-63
2021/06/28 02:17:51;;;;;;;7.65;7.05;;;;;;;17.33;83.70;98575.97;5107251;28;20027;-63
2021/06/28 02:20:19;;;;;;;6.60;5.93;;;;;;;17.33;83.53;98575.97;5110050;28;20027;-63
2021/06/28 02:22:44;;;;;;;5.88;5.47;;;;;;;17.22;83.89;98568.69;5111052;28;20054;-63
2021/06/28 02:25:10;;;;;;;6.45;5.95;;;;;;;17.20;84.31;98580.88;5108087;28;20380;-63
2021/06/28 02:27:40;;;;;;;7.25;6.45;;;;;;;17.19;84.03;98576.59;5110655;28;20032;-63
2021/06/28 02:30:11;;;;;;;5.90;5.40;;;;;;;17.16;84.13;98583.69;5109913;28;20058;-63
2021/06/28 02:32:38;;;;;;;6.82;6.10;;;;;;;17.15;84.21;98585.44;5109311;28;20023;-63
2021/06/28 02:35:08;;;;;;;6.55;5.95;;;;;;;17.14;84.45;98582.94;5110475;28;20046;-63
2021/06/28 02:37:34;;;;;;;6.63;6.03;;;;;;;17.15;83.84;98594.94;5108995;28;20361;-63
2021/06/28 02:40:00;;;;;;;7.95;6.13;;;;;;;17.17;83.39;98593.97;5112025;28;20032;-62
2021/06/28 02:42:26;;;;;;;6.55;6.03;;;;;;;17.15;83.02;98594.94;5110396;28;20084;-63
2021/06/28 02:44:52;;;;;;;5.95;5.35;;;;;;;17.06;83.16;98585.84;5110786;28;20020;-63
2021/06/28 02:47:17;;;;;;;6.15;5.63;;;;;;;17.06;83.22;98585.84;5112336;28;20288;-62
2021/06/28 02:49:43;;;;;;;5.63;5.13;;;;;;;17.03;83.55;98582.56;5111557;28;20408;-63
2021/06/28 02:52:09;;;;;;;5.63;5.18;;;;;;;17.00;84.56;98591.31;5111155;28;20040;-63
2021/06/28 02:54:34;;;;;;;6.90;5.88;;;;;;;16.96;84.38;98587.19;5110792;28;20023;-63
2021/06/28 02:56:59;;;;;;;6.40;5.90;;;;;;;16.98;83.88;98589.69;5108940;28;20097;-63
2021/06/28 02:59:25;;;;;;;5.95;5.45;;;;;;;16.99;84.45;98597.41;5111834;28;20023;-63
2021/06/28 03:01:50;;;;;;;6.50;6.00;;;;;;;16.93;84.67;98597.66;5110393;28;20076;-63
2021/06/28 03:04:16;;;;;;;8.90;5.93;;;;;;;16.90;84.44;98603.00;5110695;28;20060;-63
2021/06/28 03:06:41;;;;;;;6.43;5.85;;;;;;;16.95;84.43;98602.78;5087869;28;20027;-63
2021/06/28 03:09:07;;;;;;;6.40;5.90;;;;;;;17.01;84.48;98600.78;5109392;28;20052;-63
2021/06/28 03:11:32;;;;;;;6.15;5.63;;;;;;;17.01;84.62;98598.19;5110011;28;20039;-63
2021/06/28 03:13:58;;;;;;;10.20;6.60;;;;;;;17.03;84.67;98604.13;5111213;28;20592;-63
2021/06/28 03:16:24;;;;;;;6.90;6.30;;;;;;;17.02;85.15;98607.63;5108857;28;20036;-64
2021/06/28 03:18:49;;;;;;;6.40;5.90;;;;;;;17.02;85.27;98602.44;5111470;28;20315;-64
2021/06/28 03:21:15;;;;;;;6.82;5.82;;;;;;;17.05;84.84;98601.47;5110276;28;20033;-64
2021/06/28 03:23:43;;;;;;;6.03;5.53;;;;;;;17.14;84.92;98603.66;5111229;28;20073;-63
2021/06/28 03:26:09;;;;;;;5.72;5.28;;;;;;;17.13;84.34;98601.97;5093495;28;20027;-63
2021/06/28 03:28:34;;;;;;;6.53;5.70;;;;;;;17.17;84.39;98599.16;5110181;28;20043;-63
2021/06/28 03:31:01;;;;;;;5.75;5.35;;;;;;;17.27;83.95;98597.81;5109456;28;20110;-63
2021/06/28 03:33:27;;;;;;;7.18;6.47;;;;;;;17.26;82.92;98600.50;5107556;28;20046;-63
2021/06/28 03:35:52;;;;;;;6.10;5.63;;;;;;;17.43;81.33;98603.13;5108247;28;20027;-63
2021/06/28 03:38:18;;;;;;;6.60;5.95;;;;;;;17.48;80.96;98602.91;5106990;28;20562;-63
2021/06/28 03:40:44;;;;;;;8.10;5.85;;;;;;;17.48;81.24;98605.50;5110209;28;20102;-63
2021/06/28 03:43:11;;;;;;;8.13;6.32;;;;;;;17.50;81.27;98608.84;5109935;28;20035;-63
2021/06/28 03:45:37;;;;;;;6.30;5.72;;;;;;;17.60;81.00;98612.75;5108622;28;20047;-63
2021/06/28 03:48:04;;;;;;;6.53;5.85;;;;;;;17.70;80.71;98608.78;5108455;28;20168;-63
2021/06/28 03:50:30;;;;;;;6.53;5.97;;;;;;;17.74;81.08;98613.75;5110987;28;20031;-64
2021/06/28 03:52:56;;;;;;;5.38;4.95;;;;;;;17.86;81.04;98612.34;5109313;28;20035;-64
2021/06/28 03:55:22;;;;;;;6.18;5.68;;;;;;;17.95;81.17;98624.81;5111163;28;20310;-64
2021/06/28 03:57:47;;;;;;;7.68;6.10;;;;;;;18.04;80.69;98616.59;5109647;28;20023;-63
2021/06/28 04:00:17;;;;;;;6.15;5.75;;;;;;;18.24;79.83;98624.25;5092474;28;20027;-63
2021/06/28 04:02:43;;;;;;;5.95;5.55;;;;;;;18.37;79.25;98621.88;5109539;28;20023;-63
2021/06/28 04:05:11;;;;;;;5.80;5.18;;;;;;;18.55;78.18;98620.13;5109498;28;20039;-63
2021/06/28 04:07:37;;;;;;;6.05;5.65;;;;;;;18.60;77.30;98623.31;5108580;28;20039;-63
2021/06/28 04:10:06;;;;;;;6.05;5.55;;;;;;;18.79;76.94;98621.47;5109516;28;20362;-63
2021/06/28 04:12:32;;;;;;;5.32;4.93;;;;;;;18.89;76.55;98620.03;5107924;28;20023;-63
2021/06/28 04:14:58;;;;;;;6.32;5.80;;;;;;;18.99;75.53;98616.03;5109933;28;20019;-63
2021/06/28 04:17:24;;;;;;;5.63;5.13;;;;;;;19.07;74.11;98613.88;5107366;28;20824;-63
2021/06/28 04:19:50;;;;;;;7.28;6.57;;;;;;;19.12;74.11;98619.66;5108157;28;20094;-63
2021/06/28 04:22:15;;;;;;;5.50;5.00;;;;;;;19.28;74.40;98629.22;5107590;28;20038;-63
2021/06/28 04:24:40;;;;;;;7.00;5.72;;;;;;;19.42;73.28;98627.56;5110074;28;20031;-63
2021/06/28 04:27:06;;;;;;;6.25;5.78;;;;;;;19.47;72.59;98622.16;5108293;28;20080;-63
2021/06/28 04:29:31;;;;;;;6.07;5.47;;;;;;;19.49;73.71;98630.69;5107984;28;20031;-64
2021/06/28 04:31:57;;;;;;;5.93;5.43;;;;;;;19.73;72.61;98623.31;5109910;28;20122;-63
2021/06/28 04:34:22;;;;;;;5.05;4.72;;;;;;;19.94;71.86;98627.31;5108185;28;20283;-64
2021/06/28 04:36:48;;;;;;;5.65;5.15;;;;;;;20.12;71.36;98620.19;5109234;28;20039;-63
2021/06/28 04:39:13;;;;;;;6.13;5.07;;;;;;;20.31;70.80;98633.84;5108711;28;20062;-63
2021/06/28 04:41:39;;;;;;;5.35;4.85;;;;;;;20.35;70.47;98630.97;5109386;28;20036;-63
2021/06/28 04:44:04;;;;;;;5.47;5.07;;;;;;;20.59;70.19;98636.50;5107132;28;20039;-63
2021/06/28 04:46:30;;;;;;;6.18;5.80;;;;;;;20.62;68.75;98636.34;5111642;28;20032;-64
2021/06/28 04:48:55;;;;;;;6.70;5.00;;;;;;;20.81;69.30;98638.66;5108345;28;20125;-64
2021/06/28 04:51:21;;;;;;;5.93;5.43;;;;;;;21.03;68.45;98639.03;5093777;28;20037;-62
2021/06/28 04:53:46;;;;;;;5.85;5.35;;;;;;;21.33;67.49;98649.38;5111971;28;20368;-63
2021/06/28 04:56:12;;;;;;;5.10;4.70;;;;;;;21.40;67.23;98646.28;5113823;28;20050;-63
2021/06/28 04:58:37;;;;;;;5.88;5.28;;;;;;;21.61;66.51;98633.66;5112726;28;20340;-63
2021/06/28 05:01:02;;;;;;;5.35;4.85;;;;;;;21.83;66.13;98633.97;5112437;28;20028;-63
2021/06/28 05:03:28;;;;;;;5.93;5.35;;;;;;;21.92;64.63;98635.19;5095714;28;20045;-62
2021/06/28 05:05:53;;;;;;;6.10;5.55;;;;;;;22.18;62.85;98636.09;5111819;28;20027;-63
2021/06/28 05:08:19;;;;;;;8.77;6.22;;;;;;;22.30;60.46;98636.13;5111142;28;20507;-63
2021/06/28 05:10:44;;;;;;;8.98;6.55;;;;;;;22.04;60.33;98642.22;5112432;28;20038;-63
2021/06/28 05:13:10;;;;;;;7.22;6.57;;;;;;;22.26;60.21;98641.63;5113609;28;20055;-64
2021/06/28 05:15:35;;;;;;;7.38;5.65;;;;;;;22.53;59.40;98634.56;5111389;28;20414;-64
2021/06/28 05:18:00;;;;;;;7.13;6.38;;;;;;;22.50;58.15;98628.69;5113000;28;20281;-64
2021/06/28 05:20:26;;;;;;;6.90;6.40;;;;;;;22.59;57.94;98643.75;5112283;28;20451;-64
2021/06/28 05:22:52;;;;;;;6.72;6.13;;;;;;;22.36;58.82;98628.81;5113519;28;20036;-64
2021/06/28 05:25:17;;;;;;;5.57;5.15;;;;;;;22.55;59.03;98637.91;5112781;28;20043;-64
2021/06/28 05:27:43;;;;;;;5.80;5.30;;;;;;;22.66;59.09;98647.66;5111652;28;20042;-64
2021/06/28 05:30:11;;;;;;;6.50;5.90;;;;;;;22.73;58.08;98648.94;5113580;28;20172;-64
2021/06/28 05:32:37;;;;;;;6.50;5.95;;;;;;;22.72;58.05;98645.47;5111923;28;20027;-63
2021/06/28 05:35:05;;;;;;;6.40;5.85;;;;;;;22.92;57.83;98645.88;5113808;28;20039;-64
2021/06/28 05:37:30;;;;;;;7.25;6.00;;;;;;;22.79;57.89;98650.31;5094136;28;20024;-63
2021/06/28 05:39:56;;;;;;;7.38;6.78;;;;;;;22.72;57.54;98650.72;5114227;28;20084;-64
2021/06/28 05:42:21;;;;;;;6.47;5.90;;;;;;;22.71;58.30;98651.66;5111267;28;20024;-63
2021/06/28 05:44:47;;;;;;;6.65;6.05;;;;;;;22.82;57.64;98643.09;5114072;28;20451;-63
2021/06/28 05:47:14;;;;;;;7.43;6.82;;;;;;;22.96;57.23;98660.41;5110054;28;20028;-63
2021/06/28 05:49:41;;;;;;;7.38;6.68;;;;;;;22.85;57.83;98661.16;5110343;28;20031;-63
2021/06/28 05:52:07;;;;;;;7.55;6.63;;;;;;;22.91;57.08;98654.69;5109791;28;20138;-63
2021/06/28 05:54:32;;;;;;;8.18;7.40;;;;;;;23.05;55.96;98651.94;5113101;28;20024;-63
2021/06/28 05:56:58;;;;;;;8.35;7.65;;;;;;;23.07;56.42;98647.44;5110362;28;20133;-63
2021/06/28 05:59:23;;;;;;;7.35;6.65;;;;;;;23.16;56.75;98654.66;5112245;28;20028;-63
2021/06/28 06:01:49;;;;;;;8.77;7.97;;;;;;;23.14;57.32;98649.53;5111012;28;20031;-64
2021/06/28 06:04:14;;;;;;;7.43;6.82;;;;;;;23.42;56.95;98653.69;5113286;28;20139;-63
2021/06/28 06:06:41;;;;;;;7.00;6.43;;;;;;;23.74;55.55;98645.31;5109960;28;20027;-63
2021/06/28 06:09:06;;;;;;;7.45;6.82;;;;;;;24.00;55.81;98654.75;5111865;28;20277;-63
2021/06/28 06:11:32;;;;;;;7.30;6.70;;;;;;;24.33;55.48;98644.41;5109514;28;20042;-63
2021/06/28 06:13:57;;;;;;;9.10;7.88;;;;;;;24.40;52.89;98648.25;5111338;28;20399;-64
2021/06/28 06:16:24;;;;;;;8.63;7.80;;;;;;;24.01;54.13;98648.56;5110755;28;20103;-64
2021/06/28 06:18:50;;;;;;;7.68;6.97;;;;;;;24.40;54.60;98650.84;5109362;28;20311;-63
2021/06/28 06:21:15;;;;;;;8.50;7.70;;;;;;;24.25;52.64;98656.41;5110427;28;20046;-63
2021/06/28 06:23:40;;;;;;;9.50;8.65;;;;;;;23.75;53.99;98653.06;5110106;28;20099;-63
2021/06/28 06:26:06;;;;;;;8.93;8.13;;;;;;;23.89;54.77;98659.94;5109986;28;20049;-63
2021/06/28 06:28:31;;;;;;;8.35;7.63;;;;;;;23.56;55.21;98653.53;5112199;28;20079;-63
2021/06/28 06:30:57;;;;;;;7.25;6.70;;;;;;;23.66;55.61;98649.34;5110420;28;20278;-63
2021/06/28 06:33:22;;;;;;;8.90;8.15;;;;;;;23.64;54.83;98653.00;5090752;28;20031;-63
2021/06/28 06:35:49;;;;;;;8.00;7.30;;;;;;;23.73;54.60;98654.09;5110451;28;20296;-64
2021/06/28 06:38:15;;;;;;;8.75;7.93;;;;;;;23.58;54.73;98656.91;5110180;28;20286;-63
2021/06/28 06:40:40;;;;;;;9.65;8.05;;;;;;;23.40;55.43;98657.34;5097343;28;20406;-63
2021/06/28 06:43:05;;;;;;;8.13;7.28;;;;;;;23.30;55.53;98667.59;5093860;28;20038;-63
2021/06/28 06:45:31;;;;;;;7.28;6.68;;;;;;;23.24;56.20;98668.03;5091457;28;20051;-63
2021/06/28 06:47:57;;;;;;;7.88;7.07;;;;;;;23.15;56.39;98672.13;5092602;28;20024;-63
2021/06/28 06:50:22;;;;;;;7.32;6.43;;;;;;;23.35;56.08;98665.50;5092286;28;20039;-63
2021/06/28 06:52:49;;;;;;;7.13;6.30;;;;;;;23.50;55.94;98664.47;5092427;28;20036;-64
2021/06/28 06:55:15;;;;;;;7.53;6.82;;;;;;;23.76;55.60;98670.47;5092028;28;20177;-62
2021/06/28 06:57:41;;;;;;;7.80;7.13;;;;;;;23.87;55.18;98670.50;5092339;28;20038;-62
2021/06/28 07:00:17;;;;;;;8.40;7.72;;;;;;;23.90;55.49;98670.28;5091107;28;20028;-62
2021/06/28 07:02:42;;;;;;;9.65;8.75;;;;;;;23.64;55.40;98673.94;5092095;28;20389;-61
2021/06/28 07:05:08;;;;;;;7.68;6.97;;;;;;;23.78;55.56;98678.19;5090555;28;20052;-63
2021/06/28 07:07:36;;;;;;;7.78;6.93;;;;;;;24.05;55.89;98673.59;5091693;28;20032;-63
2021/06/28 07:10:06;;;;;;;7.18;6.57;;;;;;;24.32;53.97;98666.31;5090627;28;20118;-63
2021/06/28 07:12:31;;;;;;;7.88;7.07;;;;;;;24.45;53.02;98668.88;5089111;28;20116;-63
2021/06/28 07:14:57;;;;;;;8.27;7.47;;;;;;;24.70;52.41;98675.72;5086905;28;21400;-62
2021/06/28 07:17:22;;;;;;;8.05;6.60;;;;;;;24.55;52.71;98675.09;5092646;28;20390;-64
2021/06/28 07:19:48;;;;;;;8.70;7.93;;;;;;;24.77;52.28;98674.31;5090679;28;20391;-63
2021/06/28 07:22:13;;;;;;;8.00;6.75;;;;;;;25.06;52.04;98675.56;5089203;28;20373;-63
2021/06/28 07:24:39;;;;;;;10.65;8.07;;;;;;;24.99;51.93;98677.00;5090396;28;20035;-63
2021/06/28 07:27:04;;;;;;;10.23;7.95;;;;;;;24.90;52.31;98675.09;5092030;28;20016;-64
2021/06/28 07:29:30;;;;;;;8.32;7.68;;;;;;;24.43;54.43;98671.63;5091860;28;20361;-64
2021/06/28 07:31:55;;;;;;;8.85;7.95;;;;;;;24.72;52.73;98665.97;5091380;28;20127;-64
2021/06/28 07:34:21;;;;;;;7.75;6.95;;;;;;;24.85;52.76;98675.44;5092065;28;20028;-64
2021/06/28 07:36:46;;;;;;;10.35;7.35;;;;;;;24.85;52.85;98675.44;5091947;28;20369;-63
2021/06/28 07:39:11;;;;;;;9.18;7.47;;;;;;;24.64;53.30;98674.41;5091976;28;20253;-63
2021/06/28 07:41:37;;;;;;;7.70;7.00;;;;;;;24.88;52.94;98682.22;5092163;28;20273;-64
2021/06/28 07:44:08;;;;;;;14.30;7.47;;;;;;;25.15;51.69;98687.97;5074145;28;20460;-64
2021/06/28 07:46:37;;;;;;;9.18;8.35;;;;;;;25.33;51.58;98683.09;5091456;28;20024;-64
2021/06/28 07:49:04;;;;;;;10.13;8.63;;;;;;;25.33;51.77;98680.47;5091511;28;20163;-63
2021/06/28 07:51:36;;;;;;;9.82;9.00;;;;;;;25.37;51.31;98677.50;5092121;28;20036;-63
2021/06/28 07:54:06;;;;;;;8.40;7.65;;;;;;;25.70;50.71;98679.25;5091443;28;20384;-63
2021/06/28 07:56:32;;;;;;;8.05;7.45;;;;;;;25.67;50.36;98682.13;5073976;28;20039;-64
2021/06/28 07:58:58;;;;;;;9.10;8.40;;;;;;;25.39;50.94;98672.94;5091602;28;20385;-64
2021/06/28 08:01:23;;;;;;;10.55;8.15;;;;;;;25.78;51.91;98679.47;5091487;28;20032;-63
2021/06/28 08:03:49;;;;;;;9.38;7.72;;;;;;;25.80;49.65;98661.78;5091124;28;20023;-63
2021/06/28 08:06:16;;;;;;;7.43;6.82;;;;;;;26.14;49.18;98666.94;5091504;28;20340;-63
2021/06/28 08:08:43;;;;;;;8.43;7.45;;;;;;;26.38;49.39;98666.75;5091168;28;20138;-64
2021/06/28 08:11:10;;;;;;;7.93;7.22;;;;;;;26.51;49.03;98672.66;5091443;28;20027;-63
2021/06/28 08:13:39;;;;;;;7.90;7.40;;;;;;;26.58;48.46;98665.91;5091093;28;20104;-62
2021/06/28 08:16:05;;;;;;;7.68;6.97;;;;;;;26.68;48.67;98666.81;5091081;28;20027;-64
2021/06/28 08:18:32;;;;;;;7.15;6.63;;;;;;;26.82;48.10;98669.09;5091686;28;20031;-63
2021/06/28 08:20:58;;;;;;;7.88;7.05;;;;;;;26.87;47.44;98671.38;5091139;28;20051;-64
2021/06/28 08:23:23;;;;;;;7.38;6.72;;;;;;;26.89;47.71;98666.81;5090849;28;20028;-64
2021/06/28 08:25:49;;;;;;;8.82;7.70;;;;;;;26.47;49.10;98661.56;5095951;28;20032;-64
2021/06/28 08:28:14;;;;;;;9.77;7.75;;;;;;;26.27;49.46;98662.34;5096210;28;20068;-64
2021/06/28 08:30:40;;;;;;;8.07;7.30;;;;;;;26.54;48.52;98662.72;5095514;28;20398;-64
2021/06/28 08:33:06;;;;;;;7.47;6.97;;;;;;;26.71;48.45;98670.03;5095731;28;20273;-64
2021/06/28 08:35:31;;;;;;;8.35;7.50;;;;;;;26.82;48.33;98662.03;5096105;28;20028;-64
2021/06/28 08:37:57;;;;;;;7.22;6.72;;;;;;;27.06;47.55;98674.97;5095120;28;20032;-64
2021/06/28 08:40:22;;;;;;;8.15;7.55;;;;;;;27.37;47.91;98667.03;5095329;28;20328;-64
2021/06/28 08:42:48;;;;;;;7.22;6.72;;;;;;;27.45;46.86;98672.47;5077706;28;20044;-64
2021/06/28 08:45:14;;;;;;;8.73;7.18;;;;;;;27.74;46.99;98672.56;5095532;28;20065;-64
2021/06/28 08:47:41;;;;;;;7.95;7.38;;;;;;;27.56;47.44;98667.13;5094693;28;20032;-63
2021/06/28 08:50:09;;;;;;;7.22;6.72;;;;;;;27.66;47.03;98658.28;5094800;28;20102;-64
2021/06/28 08:52:38;;;;;;;8.38;7.72;;;;;;;27.85;49.17;98660.09;5094861;28;20035;-64
2021/06/28 08:55:08;;;;;;;7.97;6.47;;;;;;;27.86;46.40;98647.75;5095732;28;20050;-64
2021/06/28 08:57:33;;;;;;;8.15;7.35;;;;;;;27.76;46.54;98660.09;5094666;28;20119;-64
2021/06/28 08:59:59;;;;;;;8.60;7.30;;;;;;;27.81;45.25;98642.91;5094773;28;20381;-64
2021/06/28 09:02:24;;;;;;;8.55;7.72;;;;;;;27.59;45.75;98659.78;5094766;28;20134;-64
2021/06/28 09:04:57;;;;;;;7.38;6.88;;;;;;;27.86;45.64;98656.50;5095619;28;20032;-64
2021/06/28 09:07:23;;;;;;;7.18;6.68;;;;;;;27.95;45.36;98647.78;5093599;28;20297;-64
2021/06/28 09:09:48;;;;;;;7.47;6.88;;;;;;;27.64;46.48;98644.41;5095333;28;20020;-63
2021/06/28 09:12:15;;;;;;;8.55;7.78;;;;;;;27.78;46.22;98639.72;5095590;28;20028;-62
2021/06/28 09:14:56;;;;;;;8.25;7.30;;;;;;;28.19;47.92;98644.75;5095708;28;20269;-63
2021/06/28 09:17:27;;;;;;;7.43;6.72;;;;;;;28.49;46.51;98643.75;5093503;28;20034;-64
2021/06/28 09:20:12;;;;;;;7.38;6.80;;;;;;;28.44;44.31;98643.34;5095082;28;20020;-64
2021/06/28 09:22:39;;;;;;;8.95;8.07;;;;;;;28.26;44.58;98645.03;5095490;28;20034;-64
2021/06/28 09:25:07;;;;;;;6.93;6.40;;;;;;;28.29;44.45;98642.94;5095089;28;20032;-64
2021/06/28 09:27:43;;;;;;;7.78;7.07;;;;;;;28.40;45.59;98645.44;5094329;28;20134;-64
2021/06/28 09:30:16;;;;;;;7.97;7.30;;;;;;;28.66;45.12;98648.31;5093917;28;20020;-65
2021/06/28 09:32:57;;;;;;;8.52;7.82;;;;;;;28.78;45.87;98641.91;5096112;28;20043;-64
2021/06/28 09:35:29;;;;;;;8.18;7.40;;;;;;;28.78;47.22;98639.28;5093561;28;20377;-63
2021/06/28 09:37:55;;;;;;;8.82;8.05;;;;;;;28.20;44.03;98642.94;5094158;28;20034;-63
2021/06/28 09:40:25;;;;;;;7.70;7.00;;;;;;;28.24;44.79;98641.69;5095004;28;20032;-64
2021/06/28 09:42:50;;;;;;;7.55;7.03;;;;;;;28.25;45.35;98643.38;5095306;28;20028;-63
2021/06/28 09:45:19;;;;;;;7.70;6.97;;;;;;;28.31;45.09;98642.78;5093521;28;20291;-62
2021/06/28 09:47:44;;;;;;;12.07;10.88;;;;;;;28.61;44.41;98635.53;5094039;28;20036;-63
2021/06/28 09:50:16;;;;;;;8.18;7.57;;;;;;;28.85;43.93;98637.75;5093881;28;20020;-63
2021/06/28 09:52:50;;;;;;;7.60;6.75;;;;;;;28.59;43.44;98647.22;5075711;28;20040;-63
2021/06/28 09:55:24;;;;;;;7.30;6.90;;;;;;;28.69;44.20;98640.09;5074501;28;20035;-63
2021/06/28 09:58:08;;;;;;;;;;;;;;;28.92;44.40;98637.97;5093883;28;20031;-63
2021/06/28 10:00:45;;;;;;;7.05;6.45;;;;;;;29.00;42.19;98638.94;5092573;28;19944;-64
2021/06/28 10:03:29;;;;;;;7.03;6.40;;;;;;;28.87;42.10;98648.13;5093892;28;20028;-63
2021/06/28 10:08:45;;;;;;;6.97;6.43;;;;;;;29.23;41.60;98635.91;5091226;28;20329;-62
2021/06/28 10:11:22;;;;;;;7.47;6.68;;;;;;;29.15;43.94;98635.81;5093562;28;20024;-62
2021/06/28 10:13:53;;;;;;;6.72;6.32;;;;;;;29.47;42.48;98630.94;5093152;28;20119;-63
2021/06/28 10:16:20;;;;;;;6.20;5.80;;;;;;;29.50;40.83;98630.66;5092681;28;20126;-63
2021/06/28 10:18:46;;;;;;;7.28;6.75;;;;;;;29.38;41.77;98624.75;5089784;28;20074;-63
2021/06/28 10:21:12;;;;;;;6.88;6.47;;;;;;;29.60;41.40;98633.25;5028554;28;20060;-63
2021/06/28 10:23:39;;;;;;;6.60;6.10;;;;;;;29.62;41.06;98615.44;5050403;28;20028;-63
2021/06/28 10:26:05;;;;;;;6.45;6.10;;;;;;;29.79;41.28;98615.41;5050064;28;20393;-63
2021/06/28 10:28:33;;;;;;;6.80;6.38;;;;;;;29.84;40.90;98615.81;5052574;28;20040;-63
2021/06/28 10:30:59;;;;;;;7.15;6.70;;;;;;;29.93;41.24;98622.88;5052165;28;20047;-63
2021/06/28 10:33:25;;;;;;;6.53;6.22;;;;;;;29.70;41.41;98618.16;5050632;28;20131;-64
2021/06/28 10:36:00;;;;;;;6.32;5.68;;;;;;;30.08;42.25;98609.13;5053127;28;20410;-63
2021/06/28 10:38:44;;;;;;;7.32;6.68;;;;;;;30.09;41.27;98613.41;5051902;28;20374;-64
2021/06/28 10:41:09;;;;;;;6.53;5.95;;;;;;;30.39;41.43;98615.63;5054396;28;20112;-64
2021/06/28 10:43:37;;;;;;;6.78;6.28;;;;;;;30.74;41.68;98612.94;5050688;28;20144;-63
2021/06/28 10:46:33;;;;;;;6.45;5.95;;;;;;;30.99;41.66;98613.88;5051309;28;20041;-63
2021/06/28 10:48:59;;;;;;;5.78;5.40;;;;;;;30.84;39.41;98602.25;5052441;28;20031;-63
2021/06/28 10:51:41;;;;;;;6.20;5.80;;;;;;;30.99;38.77;98595.34;5051252;28;20020;-64
2021/06/28 10:54:08;;;;;;;6.60;5.97;;;;;;;30.67;39.64;98592.53;5051500;28;20029;-63
2021/06/28 10:56:36;;;;;;;7.47;7.07;;;;;;;30.63;39.25;98594.69;5053045;28;20035;-63
2021/06/28 10:59:07;;;;;;;7.28;6.07;;;;;;;30.85;39.29;98599.41;5052937;28;20143;-63
2021/06/28 11:01:39;;;;;;;6.22;5.72;;;;;;;30.90;39.72;98595.47;5049932;28;20025;-63
2021/06/28 11:04:08;;;;;;;6.30;5.93;;;;;;;31.04;39.31;98586.97;5049991;28;20017;-64
2021/06/28 11:06:35;;;;;;;6.35;5.85;;;;;;;31.01;40.96;98587.28;5051963;28;20079;-64
2021/06/28 11:09:07;;;;;;;6.25;5.85;;;;;;;31.21;40.51;98586.88;5050366;28;20049;-64
2021/06/28 11:11:45;;;;;;;6.47;6.07;;;;;;;31.24;40.14;98583.06;5050257;28;20074;-64
2021/06/28 11:14:19;;;;;;;6.60;6.20;;;;;;;31.28;39.84;98577.28;5050289;28;20044;-64
2021/06/28 11:17:15;;;;;;;6.22;5.88;;;;;;;31.15;39.40;98576.91;5050387;28;20037;-64
2021/06/28 11:19:53;;;;;;;8.40;6.78;;;;;;;31.46;38.89;98571.03;5050926;28;20108;-63
2021/06/28 11:22:30;;;;;;;6.90;6.32;;;;;;;31.43;38.64;98569.53;5051004;28;20025;-63
2021/06/28 11:24:57;;;;;;;5.97;5.57;;;;;;;31.37;38.93;98558.75;5035371;28;20082;-63
2021/06/28 11:27:23;;;;;;;6.97;6.38;;;;;;;31.48;38.22;98561.94;5051124;28;20102;-63
2021/06/28 11:29:53;;;;;;;6.43;5.97;;;;;;;31.58;38.70;98562.63;5049449;28;20363;-63
2021/06/28 11:32:30;;;;;;;6.93;6.40;;;;;;;31.79;38.56;98559.50;5051169;28;20042;-63
2021/06/28 11:34:57;;;;;;;6.97;6.28;;;;;;;31.74;38.83;98552.03;5050306;28;20033;-63
2021/06/28 11:37:23;;;;;;;7.32;6.63;;;;;;;31.56;38.09;98554.03;5051184;28;20087;-63
2021/06/28 11:39:57;;;;;;;6.63;6.10;;;;;;;31.76;38.75;98543.94;5051398;28;20373;-63